ADDS TAF Data INFO
IDs: Format: Raw Decoded Include METARs

Data at: 0622 UTC 23 Feb 2018

KPEQ 230615Z AUTO 00000KT 10SM CLR 02/M03 A3015 RMK AO2 T00231033

KPEQ 230520Z 2306/2406 31002KT P6SM BKN250
  FM231100 31002KT P6SM BKN015
  FM231700 04006KT P6SM FEW250